sensor_id;sensor_type;location;lat;lon;timestamp;P1;durP1;ratioP1;P2;durP2;ratioP2
74229;SDS011;62589;12.568;99.958;2024-03-02T00:00:54;10.32;;;9.23;;
74229;SDS011;62589;12.568;99.958;2024-03-02T00:03:22;13.68;;;8.70;;
74229;SDS011;62589;12.568;99.958;2024-03-02T00:05:52;10.35;;;8.70;;
74229;SDS011;62589;12.568;99.958;2024-03-02T00:08:24;15.43;;;9.18;;
74229;SDS011;62589;12.568;99.958;2024-03-02T00:10:51;13.57;;;8.73;;
74229;SDS011;62589;12.568;99.958;2024-03-02T00:13:27;11.02;;;8.77;;
74229;SDS011;62589;12.568;99.958;2024-03-02T00:16:00;13.38;;;8.77;;
74229;SDS011;62589;12.568;99.958;2024-03-02T00:18:31;14.73;;;9.02;;
74229;SDS011;62589;12.568;99.958;2024-03-02T00:21:00;9.18;;;8.18;;
74229;SDS011;62589;12.568;99.958;2024-03-02T00:23:32;11.00;;;8.00;;
74229;SDS011;62589;12.568;99.958;2024-03-02T00:26:00;12.10;;;8.70;;
74229;SDS011;62589;12.568;99.958;2024-03-02T00:28:36;10.45;;;7.97;;
74229;SDS011;62589;12.568;99.958;2024-03-02T00:31:04;14.32;;;9.20;;
74229;SDS011;62589;12.568;99.958;2024-03-02T00:33:42;11.23;;;8.43;;
74229;SDS011;62589;12.568;99.958;2024-03-02T00:36:31;15.30;;;10.02;;
74229;SDS011;62589;12.568;99.958;2024-03-02T00:38:58;19.63;;;9.35;;
74229;SDS011;62589;12.568;99.958;2024-03-02T00:41:30;14.25;;;9.98;;
74229;SDS011;62589;12.568;99.958;2024-03-02T00:44:07;15.30;;;11.25;;
74229;SDS011;62589;12.568;99.958;2024-03-02T00:46:39;18.80;;;10.65;;
74229;SDS011;62589;12.568;99.958;2024-03-02T00:51:53;14.77;;;10.30;;
74229;SDS011;62589;12.568;99.958;2024-03-02T00:54:24;14.27;;;10.70;;
74229;SDS011;62589;12.568;99.958;2024-03-02T00:56:55;13.45;;;10.38;;
74229;SDS011;62589;12.568;99.958;2024-03-02T00:59:23;13.65;;;8.98;;
74229;SDS011;62589;12.568;99.958;2024-03-02T01:01:51;16.83;;;9.60;;
74229;SDS011;62589;12.568;99.958;2024-03-02T01:04:19;14.60;;;10.18;;
74229;SDS011;62589;12.568;99.958;2024-03-02T01:06:46;11.45;;;9.32;;
74229;SDS011;62589;12.568;99.958;2024-03-02T01:09:13;16.45;;;10.57;;
74229;SDS011;62589;12.568;99.958;2024-03-02T01:11:43;15.60;;;10.30;;
74229;SDS011;62589;12.568;99.958;2024-03-02T01:14:10;15.43;;;10.98;;
74229;SDS011;62589;12.568;99.958;2024-03-02T01:16:41;12.13;;;9.48;;
74229;SDS011;62589;12.568;99.958;2024-03-02T01:19:09;15.95;;;9.68;;
74229;SDS011;62589;12.568;99.958;2024-03-02T01:21:36;17.52;;;10.48;;
74229;SDS011;62589;12.568;99.958;2024-03-02T01:24:04;12.18;;;9.82;;
74229;SDS011;62589;12.568;99.958;2024-03-02T01:26:31;13.65;;;9.35;;
74229;SDS011;62589;12.568;99.958;2024-03-02T01:28:58;17.42;;;9.73;;
74229;SDS011;62589;12.568;99.958;2024-03-02T01:31:25;13.85;;;10.20;;
74229;SDS011;62589;12.568;99.958;2024-03-02T01:33:54;16.27;;;9.60;;
74229;SDS011;62589;12.568;99.958;2024-03-02T01:36:26;13.68;;;9.45;;
74229;SDS011;62589;12.568;99.958;2024-03-02T01:38:53;12.60;;;9.15;;
74229;SDS011;62589;12.568;99.958;2024-03-02T01:41:20;19.45;;;11.32;;
74229;SDS011;62589;12.568;99.958;2024-03-02T02:25:01;17.88;;;8.32;;
74229;SDS011;62589;12.568;99.958;2024-03-02T02:27:28;11.50;;;8.18;;
74229;SDS011;62589;12.568;99.958;2024-03-02T02:29:56;14.35;;;8.85;;
74229;SDS011;62589;12.568;99.958;2024-03-02T02:32:22;11.82;;;8.07;;
74229;SDS011;62589;12.568;99.958;2024-03-02T02:34:52;10.55;;;7.53;;
74229;SDS011;62589;12.568;99.958;2024-03-02T02:37:19;13.23;;;8.38;;
74229;SDS011;62589;12.568;99.958;2024-03-02T02:39:45;9.88;;;8.02;;
74229;SDS011;62589;12.568;99.958;2024-03-02T02:42:12;11.80;;;8.23;;
74229;SDS011;62589;12.568;99.958;2024-03-02T02:44:39;12.18;;;7.60;;
74229;SDS011;62589;12.568;99.958;2024-03-02T02:47:07;14.70;;;8.52;;
74229;SDS011;62589;12.568;99.958;2024-03-02T02:49:34;14.77;;;8.90;;
74229;SDS011;62589;12.568;99.958;2024-03-02T02:52:00;14.20;;;8.73;;
74229;SDS011;62589;12.568;99.958;2024-03-02T02:54:27;12.73;;;8.18;;
74229;SDS011;62589;12.568;99.958;2024-03-02T02:56:53;11.98;;;8.30;;
74229;SDS011;62589;12.568;99.958;2024-03-02T02:59:20;10.00;;;8.25;;
74229;SDS011;62589;12.568;99.958;2024-03-02T03:01:47;14.52;;;8.82;;
74229;SDS011;62589;12.568;99.958;2024-03-02T03:09:24;14.77;;;8.80;;
74229;SDS011;62589;12.568;99.958;2024-03-02T03:11:52;11.23;;;8.15;;
74229;SDS011;62589;12.568;99.958;2024-03-02T03:14:20;18.98;;;8.75;;
74229;SDS011;62589;12.568;99.958;2024-03-02T03:16:47;12.18;;;8.23;;
74229;SDS011;62589;12.568;99.958;2024-03-02T03:19:18;11.85;;;8.50;;
74229;SDS011;62589;12.568;99.958;2024-03-02T03:21:45;12.60;;;8.40;;
74229;SDS011;62589;12.568;99.958;2024-03-02T03:24:11;13.98;;;9.07;;
74229;SDS011;62589;12.568;99.958;2024-03-02T03:26:42;14.43;;;8.05;;
74229;SDS011;62589;12.568;99.958;2024-03-02T03:29:12;13.45;;;7.85;;
74229;SDS011;62589;12.568;99.958;2024-03-02T03:31:39;15.00;;;8.70;;
74229;SDS011;62589;12.568;99.958;2024-03-02T03:34:06;13.95;;;8.90;;
74229;SDS011;62589;12.568;99.958;2024-03-02T03:36:33;10.65;;;7.75;;
74229;SDS011;62589;12.568;99.958;2024-03-02T03:39:00;14.02;;;8.73;;
74229;SDS011;62589;12.568;99.958;2024-03-02T03:41:28;13.10;;;8.20;;
74229;SDS011;62589;12.568;99.958;2024-03-02T03:43:58;15.27;;;8.57;;
74229;SDS011;62589;12.568;99.958;2024-03-02T03:46:25;17.30;;;8.82;;
74229;SDS011;62589;12.568;99.958;2024-03-02T03:48:52;13.38;;;9.43;;
74229;SDS011;62589;12.568;99.958;2024-03-02T03:51:18;14.88;;;7.72;;
74229;SDS011;62589;12.568;99.958;2024-03-02T03:53:45;11.50;;;8.30;;
74229;SDS011;62589;12.568;99.958;2024-03-02T03:56:12;13.02;;;8.07;;
74229;SDS011;62589;12.568;99.958;2024-03-02T03:58:38;13.32;;;8.10;;
74229;SDS011;62589;12.568;99.958;2024-03-02T04:01:05;12.38;;;8.18;;
74229;SDS011;62589;12.568;99.958;2024-03-02T04:11:20;14.43;;;7.78;;
74229;SDS011;62589;12.568;99.958;2024-03-02T04:13:47;17.92;;;7.68;;
74229;SDS011;62589;12.568;99.958;2024-03-02T04:16:13;18.58;;;7.25;;
74229;SDS011;62589;12.568;99.958;2024-03-02T04:18:40;11.63;;;8.13;;
74229;SDS011;62589;12.568;99.958;2024-03-02T04:21:07;13.77;;;8.35;;
74229;SDS011;62589;12.568;99.958;2024-03-02T04:23:33;14.00;;;8.80;;
74229;SDS011;62589;12.568;99.958;2024-03-02T04:26:00;11.68;;;7.95;;
74229;SDS011;62589;12.568;99.958;2024-03-02T04:28:27;14.23;;;8.20;;
74229;SDS011;62589;12.568;99.958;2024-03-02T04:30:53;10.65;;;8.00;;
74229;SDS011;62589;12.568;99.958;2024-03-02T04:33:20;12.77;;;8.55;;
74229;SDS011;62589;12.568;99.958;2024-03-02T04:35:47;14.63;;;9.13;;
74229;SDS011;62589;12.568;99.958;2024-03-02T04:38:13;13.90;;;9.27;;
74229;SDS011;62589;12.568;99.958;2024-03-02T04:40:40;14.45;;;9.18;;
74229;SDS011;62589;12.568;99.958;2024-03-02T04:43:07;9.98;;;8.43;;
74229;SDS011;62589;12.568;99.958;2024-03-02T04:45:37;12.27;;;8.88;;
74229;SDS011;62589;12.568;99.958;2024-03-02T04:48:04;11.48;;;8.10;;
74229;SDS011;62589;12.568;99.958;2024-03-02T04:50:31;15.30;;;8.80;;
74229;SDS011;62589;12.568;99.958;2024-03-02T04:52:58;14.02;;;8.30;;
74229;SDS011;62589;12.568;99.958;2024-03-02T04:55:24;13.63;;;8.50;;
74229;SDS011;62589;12.568;99.958;2024-03-02T04:57:55;15.05;;;8.77;;
74229;SDS011;62589;12.568;99.958;2024-03-02T05:00:22;16.08;;;9.18;;
74229;SDS011;62589;12.568;99.958;2024-03-02T05:02:49;15.32;;;9.73;;
74229;SDS011;62589;12.568;99.958;2024-03-02T05:05:16;13.30;;;8.93;;
74229;SDS011;62589;12.568;99.958;2024-03-02T05:07:43;13.77;;;8.70;;
74229;SDS011;62589;12.568;99.958;2024-03-02T05:10:10;15.60;;;8.98;;
74229;SDS011;62589;12.568;99.958;2024-03-02T05:12:40;13.75;;;9.30;;
74229;SDS011;62589;12.568;99.958;2024-03-02T05:15:07;12.32;;;8.43;;
74229;SDS011;62589;12.568;99.958;2024-03-02T05:17:41;15.38;;;7.75;;
74229;SDS011;62589;12.568;99.958;2024-03-02T05:20:08;13.60;;;8.27;;
74229;SDS011;62589;12.568;99.958;2024-03-02T05:22:36;12.73;;;8.05;;
74229;SDS011;62589;12.568;99.958;2024-03-02T05:25:03;13.93;;;8.50;;
74229;SDS011;62589;12.568;99.958;2024-03-02T05:27:31;12.77;;;8.13;;
74229;SDS011;62589;12.568;99.958;2024-03-02T05:29:58;12.13;;;8.38;;
74229;SDS011;62589;12.568;99.958;2024-03-02T05:32:25;13.20;;;8.95;;
74229;SDS011;62589;12.568;99.958;2024-03-02T05:34:52;12.50;;;8.68;;
74229;SDS011;62589;12.568;99.958;2024-03-02T05:37:19;14.82;;;8.75;;
74229;SDS011;62589;12.568;99.958;2024-03-02T05:39:45;14.48;;;8.45;;
74229;SDS011;62589;12.568;99.958;2024-03-02T05:42:12;13.05;;;8.52;;
74229;SDS011;62589;12.568;99.958;2024-03-02T05:44:40;13.98;;;8.63;;
74229;SDS011;62589;12.568;99.958;2024-03-02T05:47:06;13.32;;;8.80;;
74229;SDS011;62589;12.568;99.958;2024-03-02T05:49:34;12.52;;;8.10;;
74229;SDS011;62589;12.568;99.958;2024-03-02T05:52:01;13.05;;;7.57;;
74229;SDS011;62589;12.568;99.958;2024-03-02T05:54:28;10.93;;;8.48;;
74229;SDS011;62589;12.568;99.958;2024-03-02T05:56:55;17.75;;;8.77;;
74229;SDS011;62589;12.568;99.958;2024-03-02T05:59:22;13.30;;;8.32;;
74229;SDS011;62589;12.568;99.958;2024-03-02T06:01:51;12.25;;;8.27;;
74229;SDS011;62589;12.568;99.958;2024-03-02T06:07:00;11.55;;;7.55;;
74229;SDS011;62589;12.568;99.958;2024-03-02T06:09:27;12.20;;;9.10;;
74229;SDS011;62589;12.568;99.958;2024-03-02T06:11:54;13.60;;;8.30;;
74229;SDS011;62589;12.568;99.958;2024-03-02T06:14:23;11.98;;;8.23;;
74229;SDS011;62589;12.568;99.958;2024-03-02T06:16:50;15.35;;;8.57;;
74229;SDS011;62589;12.568;99.958;2024-03-02T06:19:17;14.15;;;9.38;;
74229;SDS011;62589;12.568;99.958;2024-03-02T06:21:43;14.93;;;8.82;;
74229;SDS011;62589;12.568;99.958;2024-03-02T06:24:10;19.58;;;10.00;;
74229;SDS011;62589;12.568;99.958;2024-03-02T06:26:37;13.27;;;9.18;;
74229;SDS011;62589;12.568;99.958;2024-03-02T06:29:04;16.88;;;8.38;;
74229;SDS011;62589;12.568;99.958;2024-03-02T06:31:31;13.57;;;8.88;;
74229;SDS011;62589;12.568;99.958;2024-03-02T06:33:58;12.70;;;8.93;;
74229;SDS011;62589;12.568;99.958;2024-03-02T06:36:24;13.50;;;9.35;;
74229;SDS011;62589;12.568;99.958;2024-03-02T06:38:51;14.20;;;8.90;;
74229;SDS011;62589;12.568;99.958;2024-03-02T06:41:18;10.73;;;8.35;;
74229;SDS011;62589;12.568;99.958;2024-03-02T06:43:44;13.60;;;7.95;;
74229;SDS011;62589;12.568;99.958;2024-03-02T06:46:11;13.88;;;8.65;;
74229;SDS011;62589;12.568;99.958;2024-03-02T06:48:40;14.65;;;7.60;;
74229;SDS011;62589;12.568;99.958;2024-03-02T06:51:07;9.95;;;7.75;;
74229;SDS011;62589;12.568;99.958;2024-03-02T06:53:35;12.43;;;7.93;;
74229;SDS011;62589;12.568;99.958;2024-03-02T06:56:02;12.05;;;8.35;;
74229;SDS011;62589;12.568;99.958;2024-03-02T06:58:29;14.18;;;8.38;;
74229;SDS011;62589;12.568;99.958;2024-03-02T07:00:56;13.50;;;8.40;;
74229;SDS011;62589;12.568;99.958;2024-03-02T07:06:01;15.02;;;8.73;;
74229;SDS011;62589;12.568;99.958;2024-03-02T07:08:28;13.27;;;8.95;;
74229;SDS011;62589;12.568;99.958;2024-03-02T07:10:55;13.13;;;9.10;;
74229;SDS011;62589;12.568;99.958;2024-03-02T07:13:22;14.40;;;10.68;;
74229;SDS011;62589;12.568;99.958;2024-03-02T07:15:49;15.73;;;10.27;;
74229;SDS011;62589;12.568;99.958;2024-03-02T07:18:28;15.40;;;11.52;;
74229;SDS011;62589;12.568;99.958;2024-03-02T07:20:58;14.60;;;10.50;;
74229;SDS011;62589;12.568;99.958;2024-03-02T07:23:29;18.30;;;11.90;;
74229;SDS011;62589;12.568;99.958;2024-03-02T07:25:57;22.85;;;14.63;;
74229;SDS011;62589;12.568;99.958;2024-03-02T07:28:26;19.63;;;14.27;;
74229;SDS011;62589;12.568;99.958;2024-03-02T07:31:00;23.58;;;16.63;;
74229;SDS011;62589;12.568;99.958;2024-03-02T07:33:27;24.00;;;16.42;;
74229;SDS011;62589;12.568;99.958;2024-03-02T07:35:54;23.45;;;17.10;;
74229;SDS011;62589;12.568;99.958;2024-03-02T07:38:21;21.60;;;18.38;;
74229;SDS011;62589;12.568;99.958;2024-03-02T07:40:51;25.95;;;18.83;;
74229;SDS011;62589;12.568;99.958;2024-03-02T07:43:21;26.70;;;17.33;;
74229;SDS011;62589;12.568;99.958;2024-03-02T07:45:48;26.15;;;16.45;;
74229;SDS011;62589;12.568;99.958;2024-03-02T07:48:15;27.38;;;14.75;;
74229;SDS011;62589;12.568;99.958;2024-03-02T07:50:42;21.67;;;17.13;;
74229;SDS011;62589;12.568;99.958;2024-03-02T07:53:08;20.35;;;14.30;;
74229;SDS011;62589;12.568;99.958;2024-03-02T07:55:35;22.25;;;16.20;;
74229;SDS011;62589;12.568;99.958;2024-03-02T07:58:02;24.42;;;16.52;;
74229;SDS011;62589;12.568;99.958;2024-03-02T08:00:29;18.83;;;14.45;;
74229;SDS011;62589;12.568;99.958;2024-03-02T08:02:59;18.50;;;13.02;;
74229;SDS011;62589;12.568;99.958;2024-03-02T08:05:26;21.65;;;14.25;;
74229;SDS011;62589;12.568;99.958;2024-03-02T08:07:54;19.67;;;14.20;;
74229;SDS011;62589;12.568;99.958;2024-03-02T08:10:20;21.33;;;15.90;;
74229;SDS011;62589;12.568;99.958;2024-03-02T08:12:47;19.10;;;14.45;;
74229;SDS011;62589;12.568;99.958;2024-03-02T08:15:14;23.67;;;15.00;;
74229;SDS011;62589;12.568;99.958;2024-03-02T08:17:41;20.73;;;15.75;;
74229;SDS011;62589;12.568;99.958;2024-03-02T08:20:13;21.98;;;14.65;;
74229;SDS011;62589;12.568;99.958;2024-03-02T08:22:46;23.38;;;17.13;;
74229;SDS011;62589;12.568;99.958;2024-03-02T08:25:13;24.80;;;17.90;;
74229;SDS011;62589;12.568;99.958;2024-03-02T08:27:41;24.27;;;16.58;;
74229;SDS011;62589;12.568;99.958;2024-03-02T08:30:08;21.75;;;14.75;;
74229;SDS011;62589;12.568;99.958;2024-03-02T08:32:36;20.50;;;14.73;;
74229;SDS011;62589;12.568;99.958;2024-03-02T08:35:03;23.75;;;16.85;;
74229;SDS011;62589;12.568;99.958;2024-03-02T08:37:30;24.35;;;16.02;;
74229;SDS011;62589;12.568;99.958;2024-03-02T08:39:57;25.83;;;17.95;;
74229;SDS011;62589;12.568;99.958;2024-03-02T08:42:23;27.75;;;17.50;;
74229;SDS011;62589;12.568;99.958;2024-03-02T08:44:51;18.15;;;15.25;;
74229;SDS011;62589;12.568;99.958;2024-03-02T08:47:18;24.92;;;17.23;;
74229;SDS011;62589;12.568;99.958;2024-03-02T08:49:44;22.27;;;16.35;;
74229;SDS011;62589;12.568;99.958;2024-03-02T08:52:11;20.35;;;15.82;;
74229;SDS011;62589;12.568;99.958;2024-03-02T08:54:39;25.73;;;17.83;;
74229;SDS011;62589;12.568;99.958;2024-03-02T08:57:06;24.13;;;18.60;;
74229;SDS011;62589;12.568;99.958;2024-03-02T08:59:33;22.83;;;16.95;;
74229;SDS011;62589;12.568;99.958;2024-03-02T09:02:01;30.63;;;21.15;;
74229;SDS011;62589;12.568;99.958;2024-03-02T09:13:16;25.83;;;20.50;;
74229;SDS011;62589;12.568;99.958;2024-03-02T09:15:44;31.50;;;24.60;;
74229;SDS011;62589;12.568;99.958;2024-03-02T09:18:11;31.38;;;22.10;;
74229;SDS011;62589;12.568;99.958;2024-03-02T09:20:37;41.80;;;26.08;;
74229;SDS011;62589;12.568;99.958;2024-03-02T09:23:04;32.08;;;22.80;;
74229;SDS011;62589;12.568;99.958;2024-03-02T09:25:30;31.05;;;23.25;;
74229;SDS011;62589;12.568;99.958;2024-03-02T09:27:57;30.40;;;21.92;;
74229;SDS011;62589;12.568;99.958;2024-03-02T09:30:24;24.90;;;19.13;;
74229;SDS011;62589;12.568;99.958;2024-03-02T09:32:51;35.33;;;23.80;;
74229;SDS011;62589;12.568;99.958;2024-03-02T09:35:17;29.23;;;22.10;;
74229;SDS011;62589;12.568;99.958;2024-03-02T09:37:45;32.58;;;24.38;;
74229;SDS011;62589;12.568;99.958;2024-03-02T09:40:13;27.17;;;22.58;;
74229;SDS011;62589;12.568;99.958;2024-03-02T09:42:40;38.38;;;24.08;;
74229;SDS011;62589;12.568;99.958;2024-03-02T09:45:08;31.17;;;23.42;;
74229;SDS011;62589;12.568;99.958;2024-03-02T09:47:35;29.42;;;21.50;;
74229;SDS011;62589;12.568;99.958;2024-03-02T09:50:02;28.67;;;20.73;;
74229;SDS011;62589;12.568;99.958;2024-03-02T09:52:30;31.85;;;21.67;;
74229;SDS011;62589;12.568;99.958;2024-03-02T09:54:58;25.90;;;20.45;;
74229;SDS011;62589;12.568;99.958;2024-03-02T09:57:25;27.92;;;21.65;;
74229;SDS011;62589;12.568;99.958;2024-03-02T09:59:51;28.48;;;19.98;;
74229;SDS011;62589;12.568;99.958;2024-03-02T10:02:18;27.58;;;19.20;;
74229;SDS011;62589;12.568;99.958;2024-03-02T10:04:45;28.35;;;20.02;;
74229;SDS011;62589;12.568;99.958;2024-03-02T10:07:16;25.80;;;19.52;;
74229;SDS011;62589;12.568;99.958;2024-03-02T10:09:48;23.00;;;17.83;;
74229;SDS011;62589;12.568;99.958;2024-03-02T10:14:44;25.98;;;19.67;;
74229;SDS011;62589;12.568;99.958;2024-03-02T10:17:14;31.08;;;19.83;;
74229;SDS011;62589;12.568;99.958;2024-03-02T10:19:43;27.75;;;18.83;;
74229;SDS011;62589;12.568;99.958;2024-03-02T10:22:10;26.38;;;19.80;;
74229;SDS011;62589;12.568;99.958;2024-03-02T10:27:10;27.20;;;18.92;;
74229;SDS011;62589;12.568;99.958;2024-03-02T10:29:42;26.25;;;19.00;;
74229;SDS011;62589;12.568;99.958;2024-03-02T10:32:11;30.00;;;19.73;;
74229;SDS011;62589;12.568;99.958;2024-03-02T10:34:42;28.73;;;18.92;;
74229;SDS011;62589;12.568;99.958;2024-03-02T10:37:16;25.60;;;18.27;;
74229;SDS011;62589;12.568;99.958;2024-03-02T10:39:43;26.83;;;18.17;;
74229;SDS011;62589;12.568;99.958;2024-03-02T10:42:12;24.02;;;18.65;;
74229;SDS011;62589;12.568;99.958;2024-03-02T10:44:41;26.42;;;18.50;;
74229;SDS011;62589;12.568;99.958;2024-03-02T10:47:08;22.90;;;17.77;;
74229;SDS011;62589;12.568;99.958;2024-03-02T10:49:38;25.05;;;18.63;;
74229;SDS011;62589;12.568;99.958;2024-03-02T10:52:07;27.05;;;19.90;;
74229;SDS011;62589;12.568;99.958;2024-03-02T10:54:34;71.35;;;36.35;;
74229;SDS011;62589;12.568;99.958;2024-03-02T10:57:01;43.45;;;28.10;;
74229;SDS011;62589;12.568;99.958;2024-03-02T10:59:35;27.67;;;20.80;;
74229;SDS011;62589;12.568;99.958;2024-03-02T11:02:05;31.48;;;21.75;;
74229;SDS011;62589;12.568;99.958;2024-03-02T11:56:21;23.88;;;18.63;;
74229;SDS011;62589;12.568;99.958;2024-03-02T11:58:48;24.15;;;18.25;;
74229;SDS011;62589;12.568;99.958;2024-03-02T12:01:19;25.13;;;17.45;;
74229;SDS011;62589;12.568;99.958;2024-03-02T12:03:47;26.55;;;18.77;;
74229;SDS011;62589;12.568;99.958;2024-03-02T12:06:14;23.67;;;16.85;;
74229;SDS011;62589;12.568;99.958;2024-03-02T12:08:46;25.97;;;17.27;;
74229;SDS011;62589;12.568;99.958;2024-03-02T12:11:22;23.30;;;16.90;;
74229;SDS011;62589;12.568;99.958;2024-03-02T12:13:52;20.90;;;16.60;;
74229;SDS011;62589;12.568;99.958;2024-03-02T12:16:26;27.25;;;16.27;;
74229;SDS011;62589;12.568;99.958;2024-03-02T12:18:56;24.73;;;17.67;;
74229;SDS011;62589;12.568;99.958;2024-03-02T12:21:22;20.65;;;16.45;;
74229;SDS011;62589;12.568;99.958;2024-03-02T12:24:01;22.73;;;16.88;;
74229;SDS011;62589;12.568;99.958;2024-03-02T12:26:28;21.42;;;17.08;;
74229;SDS011;62589;12.568;99.958;2024-03-02T12:29:00;24.33;;;16.77;;
74229;SDS011;62589;12.568;99.958;2024-03-02T12:31:27;20.58;;;16.23;;
74229;SDS011;62589;12.568;99.958;2024-03-02T12:33:57;23.38;;;16.92;;
74229;SDS011;62589;12.568;99.958;2024-03-02T12:36:30;24.83;;;17.73;;
74229;SDS011;62589;12.568;99.958;2024-03-02T12:39:03;23.00;;;16.30;;
74229;SDS011;62589;12.568;99.958;2024-03-02T12:41:30;22.83;;;16.73;;
74229;SDS011;62589;12.568;99.958;2024-03-02T12:44:07;22.30;;;16.10;;
74229;SDS011;62589;12.568;99.958;2024-03-02T12:46:51;18.85;;;15.00;;
74229;SDS011;62589;12.568;99.958;2024-03-02T12:49:21;22.95;;;15.75;;
74229;SDS011;62589;12.568;99.958;2024-03-02T12:51:54;19.48;;;15.40;;
74229;SDS011;62589;12.568;99.958;2024-03-02T12:54:23;25.98;;;16.92;;
74229;SDS011;62589;12.568;99.958;2024-03-02T12:56:50;21.00;;;16.30;;
74229;SDS011;62589;12.568;99.958;2024-03-02T12:59:23;20.20;;;15.50;;
74229;SDS011;62589;12.568;99.958;2024-03-02T13:01:55;21.77;;;15.88;;
74229;SDS011;62589;12.568;99.958;2024-03-02T13:04:28;25.05;;;15.75;;
74229;SDS011;62589;12.568;99.958;2024-03-02T13:06:58;19.80;;;14.57;;
74229;SDS011;62589;12.568;99.958;2024-03-02T13:09:27;20.98;;;15.07;;
74229;SDS011;62589;12.568;99.958;2024-03-02T13:12:14;25.10;;;14.63;;
74229;SDS011;62589;12.568;99.958;2024-03-02T13:14:43;17.70;;;14.65;;
74229;SDS011;62589;12.568;99.958;2024-03-02T13:17:10;21.90;;;15.57;;
74229;SDS011;62589;12.568;99.958;2024-03-02T13:20:00;16.67;;;13.80;;
74229;SDS011;62589;12.568;99.958;2024-03-02T13:22:36;21.48;;;15.02;;
74229;SDS011;62589;12.568;99.958;2024-03-02T13:25:08;15.15;;;13.30;;
74229;SDS011;62589;12.568;99.958;2024-03-02T13:27:36;24.55;;;15.07;;
74229;SDS011;62589;12.568;99.958;2024-03-02T13:30:04;19.50;;;14.20;;
74229;SDS011;62589;12.568;99.958;2024-03-02T13:32:34;19.25;;;14.75;;
74229;SDS011;62589;12.568;99.958;2024-03-02T13:35:01;18.13;;;13.68;;
74229;SDS011;62589;12.568;99.958;2024-03-02T13:40:03;20.45;;;15.20;;
74229;SDS011;62589;12.568;99.958;2024-03-02T13:42:31;20.23;;;15.57;;
74229;SDS011;62589;12.568;99.958;2024-03-02T13:45:00;22.92;;;15.80;;
74229;SDS011;62589;12.568;99.958;2024-03-02T13:47:32;28.50;;;15.52;;
74229;SDS011;62589;12.568;99.958;2024-03-02T13:50:02;19.25;;;14.32;;
74229;SDS011;62589;12.568;99.958;2024-03-02T13:52:35;19.83;;;15.00;;
74229;SDS011;62589;12.568;99.958;2024-03-02T13:55:04;24.63;;;16.15;;
74229;SDS011;62589;12.568;99.958;2024-03-02T13:57:43;21.88;;;15.73;;
74229;SDS011;62589;12.568;99.958;2024-03-02T14:00:24;18.42;;;14.85;;
74229;SDS011;62589;12.568;99.958;2024-03-02T14:02:59;25.05;;;15.55;;
74229;SDS011;62589;12.568;99.958;2024-03-02T14:05:26;21.80;;;15.48;;
74229;SDS011;62589;12.568;99.958;2024-03-02T14:07:56;21.40;;;15.88;;
74229;SDS011;62589;12.568;99.958;2024-03-02T14:10:26;19.85;;;14.45;;
74229;SDS011;62589;12.568;99.958;2024-03-02T14:13:00;20.77;;;14.73;;
74229;SDS011;62589;12.568;99.958;2024-03-02T14:15:27;21.77;;;15.52;;
74229;SDS011;62589;12.568;99.958;2024-03-02T14:17:57;20.80;;;14.88;;
74229;SDS011;62589;12.568;99.958;2024-03-02T14:20:30;23.15;;;16.13;;
74229;SDS011;62589;12.568;99.958;2024-03-02T14:23:03;20.30;;;15.05;;
74229;SDS011;62589;12.568;99.958;2024-03-02T14:25:35;21.45;;;15.65;;
74229;SDS011;62589;12.568;99.958;2024-03-02T14:28:03;24.50;;;16.45;;
74229;SDS011;62589;12.568;99.958;2024-03-02T14:30:30;20.33;;;15.38;;
74229;SDS011;62589;12.568;99.958;2024-03-02T14:33:18;24.08;;;15.45;;
74229;SDS011;62589;12.568;99.958;2024-03-02T14:35:45;22.00;;;15.75;;
74229;SDS011;62589;12.568;99.958;2024-03-02T14:38:15;22.13;;;15.77;;
74229;SDS011;62589;12.568;99.958;2024-03-02T14:40:43;23.13;;;16.27;;
74229;SDS011;62589;12.568;99.958;2024-03-02T14:43:15;23.02;;;16.05;;
74229;SDS011;62589;12.568;99.958;2024-03-02T14:45:57;22.10;;;15.90;;
74229;SDS011;62589;12.568;99.958;2024-03-02T14:48:25;25.35;;;16.40;;
74229;SDS011;62589;12.568;99.958;2024-03-02T14:50:55;24.00;;;16.67;;
74229;SDS011;62589;12.568;99.958;2024-03-02T14:53:25;21.48;;;16.05;;
74229;SDS011;62589;12.568;99.958;2024-03-02T14:55:56;26.05;;;17.00;;
74229;SDS011;62589;12.568;99.958;2024-03-02T14:58:24;22.63;;;16.35;;
74229;SDS011;62589;12.568;99.958;2024-03-02T15:00:52;23.52;;;17.17;;
74229;SDS011;62589;12.568;99.958;2024-03-02T15:03:21;27.55;;;19.75;;
74229;SDS011;62589;12.568;99.958;2024-03-02T15:05:49;31.00;;;20.30;;
74229;SDS011;62589;12.568;99.958;2024-03-02T15:08:20;29.77;;;20.63;;
74229;SDS011;62589;12.568;99.958;2024-03-02T15:10:50;32.83;;;21.08;;
74229;SDS011;62589;12.568;99.958;2024-03-02T15:13:23;29.20;;;20.27;;
74229;SDS011;62589;12.568;99.958;2024-03-02T15:15:52;32.15;;;22.88;;
74229;SDS011;62589;12.568;99.958;2024-03-02T15:18:19;34.13;;;23.67;;
74229;SDS011;62589;12.568;99.958;2024-03-02T15:20:53;29.50;;;21.13;;
74229;SDS011;62589;12.568;99.958;2024-03-02T15:23:20;37.75;;;22.92;;
74229;SDS011;62589;12.568;99.958;2024-03-02T15:25:50;33.13;;;23.00;;
74229;SDS011;62589;12.568;99.958;2024-03-02T15:28:34;33.50;;;22.77;;
74229;SDS011;62589;12.568;99.958;2024-03-02T15:31:04;29.30;;;21.55;;
74229;SDS011;62589;12.568;99.958;2024-03-02T15:33:37;31.77;;;21.25;;
74229;SDS011;62589;12.568;99.958;2024-03-02T15:36:10;31.05;;;20.30;;
74229;SDS011;62589;12.568;99.958;2024-03-02T15:38:37;28.08;;;19.95;;
74229;SDS011;62589;12.568;99.958;2024-03-02T15:41:05;27.60;;;20.33;;
74229;SDS011;62589;12.568;99.958;2024-03-02T15:43:36;27.08;;;18.88;;
74229;SDS011;62589;12.568;99.958;2024-03-02T15:46:19;25.13;;;18.75;;
74229;SDS011;62589;12.568;99.958;2024-03-02T15:48:47;22.80;;;17.55;;
74229;SDS011;62589;12.568;99.958;2024-03-02T15:51:14;23.15;;;17.05;;
74229;SDS011;62589;12.568;99.958;2024-03-02T15:53:45;25.20;;;16.55;;
74229;SDS011;62589;12.568;99.958;2024-03-02T15:56:12;21.45;;;16.17;;
74229;SDS011;62589;12.568;99.958;2024-03-02T15:58:42;22.75;;;15.50;;
74229;SDS011;62589;12.568;99.958;2024-03-02T16:01:15;21.17;;;15.30;;
74229;SDS011;62589;12.568;99.958;2024-03-02T16:04:03;20.92;;;15.30;;
74229;SDS011;62589;12.568;99.958;2024-03-02T16:06:38;21.37;;;15.37;;
74229;SDS011;62589;12.568;99.958;2024-03-02T16:09:05;21.95;;;14.25;;
74229;SDS011;62589;12.568;99.958;2024-03-02T16:11:38;21.60;;;14.63;;
74229;SDS011;62589;12.568;99.958;2024-03-02T16:14:14;19.92;;;13.95;;
74229;SDS011;62589;12.568;99.958;2024-03-02T16:16:44;23.35;;;14.00;;
74229;SDS011;62589;12.568;99.958;2024-03-02T16:19:14;21.10;;;13.95;;
74229;SDS011;62589;12.568;99.958;2024-03-02T16:21:41;21.33;;;13.98;;
74229;SDS011;62589;12.568;99.958;2024-03-02T16:24:09;22.40;;;14.02;;
74229;SDS011;62589;12.568;99.958;2024-03-02T16:26:38;21.63;;;13.93;;
74229;SDS011;62589;12.568;99.958;2024-03-02T16:29:06;23.90;;;14.23;;
74229;SDS011;62589;12.568;99.958;2024-03-02T16:31:34;22.63;;;13.75;;
74229;SDS011;62589;12.568;99.958;2024-03-02T16:34:01;23.40;;;13.73;;